createdAt,value
2023-03-26T00:01:00.481Z,19.73
2023-03-26T00:03:40.860Z,19.72
2023-03-26T00:06:14.256Z,19.71
2023-03-26T00:08:51.312Z,19.69
2023-03-26T00:11:23.627Z,19.69
2023-03-26T00:13:51.608Z,19.69
2023-03-26T00:16:26.975Z,19.69
2023-03-26T00:18:57.698Z,19.68
2023-03-26T00:21:26.792Z,19.67
2023-03-26T00:24:21.001Z,19.67
2023-03-26T00:26:53.709Z,19.66
2023-03-26T00:29:32.080Z,19.66
2023-03-26T00:32:05.085Z,19.67
2023-03-26T00:34:34.934Z,19.66
2023-03-26T00:37:05.642Z,19.65
2023-03-26T00:39:33.023Z,19.64
2023-03-26T00:42:04.299Z,19.63
2023-03-26T00:44:38.169Z,19.61
2023-03-26T00:47:05.172Z,19.62
2023-03-26T00:49:41.754Z,19.61
2023-03-26T00:52:12.329Z,19.60
2023-03-26T00:54:48.204Z,19.61
2023-03-26T00:57:29.006Z,19.60
2023-03-26T01:00:06.898Z,19.60
2023-03-26T01:02:34.016Z,19.60
2023-03-26T01:05:05.966Z,19.60
2023-03-26T01:07:42.595Z,19.58
2023-03-26T01:10:13.018Z,19.56
2023-03-26T01:12:40.897Z,19.56
2023-03-26T01:15:13.766Z,19.57
2023-03-26T01:17:44.618Z,19.56
2023-03-26T01:20:22.465Z,19.57
2023-03-26T01:22:59.343Z,19.55
2023-03-26T01:25:40.476Z,19.55
2023-03-26T01:28:15.933Z,19.56
2023-03-26T01:31:07.097Z,19.54
2023-03-26T01:33:47.247Z,19.54
2023-03-26T01:36:45.231Z,19.53
2023-03-26T01:39:40.847Z,19.52
2023-03-26T01:42:19.193Z,19.52
2023-03-26T01:45:01.876Z,19.50
2023-03-26T01:47:30.586Z,19.49
2023-03-26T01:50:07.263Z,19.51
2023-03-26T01:52:39.836Z,19.49
2023-03-26T01:55:16.778Z,19.47
2023-03-26T01:58:17.304Z,19.46
2023-03-26T02:00:59.234Z,19.46
2023-03-26T02:03:31.677Z,19.45
2023-03-26T02:06:14.542Z,19.46
2023-03-26T02:09:06.662Z,19.44
2023-03-26T02:11:40.683Z,19.46
2023-03-26T02:14:12.853Z,19.44
2023-03-26T02:16:43.380Z,19.42
2023-03-26T02:19:10.261Z,19.41
2023-03-26T02:21:43.635Z,19.41
2023-03-26T02:24:20.547Z,19.42
2023-03-26T02:26:56.361Z,19.40
2023-03-26T02:29:26.793Z,19.40
2023-03-26T02:31:59.857Z,19.39
2023-03-26T02:34:29.238Z,19.38
2023-03-26T02:37:02.858Z,19.41
2023-03-26T02:39:32.552Z,19.39
2023-03-26T02:41:59.598Z,19.38
2023-03-26T02:44:33.222Z,19.38
2023-03-26T02:47:02.794Z,19.37
2023-03-26T02:49:34.190Z,19.37
2023-03-26T02:52:02.144Z,19.36
2023-03-26T02:54:34.826Z,19.36
2023-03-26T02:57:07.300Z,19.36
2023-03-26T02:59:40.977Z,19.36
2023-03-26T03:02:08.545Z,19.36
2023-03-26T03:04:35.872Z,19.33
2023-03-26T03:07:05.750Z,19.35
2023-03-26T03:09:39.428Z,19.33
2023-03-26T03:12:09.031Z,19.31
2023-03-26T03:14:48.999Z,19.33
2023-03-26T03:17:16.690Z,19.31
2023-03-26T03:19:45.201Z,19.32
2023-03-26T03:22:18.657Z,19.32
2023-03-26T03:24:54.536Z,19.32
2023-03-26T03:27:24.966Z,19.35
2023-03-26T03:29:55.265Z,19.35
2023-03-26T03:32:25.786Z,19.34
2023-03-26T03:34:58.826Z,19.36
2023-03-26T03:37:25.943Z,19.35
2023-03-26T03:40:01.833Z,19.34
2023-03-26T03:42:32.100Z,19.34
2023-03-26T03:45:05.011Z,19.32
2023-03-26T03:47:40.602Z,19.32
2023-03-26T03:50:08.853Z,19.31
2023-03-26T03:52:39.271Z,19.32
2023-03-26T03:55:06.589Z,19.33
2023-03-26T03:57:39.455Z,19.32
2023-03-26T04:00:15.993Z,19.31
2023-03-26T04:02:46.342Z,19.31
2023-03-26T04:05:20.717Z,19.31
2023-03-26T04:07:48.505Z,19.29
2023-03-26T04:10:19.365Z,19.31
2023-03-26T04:12:49.156Z,19.28
2023-03-26T04:15:21.757Z,19.29
2023-03-26T04:17:49.121Z,19.28
2023-03-26T04:20:22.669Z,19.28
2023-03-26T04:22:55.533Z,19.25
2023-03-26T04:25:22.706Z,19.25
2023-03-26T04:27:52.949Z,19.25
2023-03-26T04:30:25.980Z,19.25
2023-03-26T04:32:55.307Z,19.24
2023-03-26T04:35:25.498Z,19.23
2023-03-26T04:37:59.079Z,19.24
2023-03-26T04:40:30.199Z,19.23
2023-03-26T04:43:00.449Z,19.22
2023-03-26T04:45:35.823Z,19.23
2023-03-26T04:48:06.661Z,19.21
2023-03-26T04:50:36.705Z,19.20
2023-03-26T04:53:03.790Z,19.17
2023-03-26T04:55:46.037Z,19.19
2023-03-26T04:58:17.094Z,19.16
2023-03-26T05:00:46.453Z,19.17
2023-03-26T05:03:17.001Z,19.17
2023-03-26T05:05:44.184Z,19.15
2023-03-26T05:08:15.342Z,19.15
2023-03-26T05:10:45.511Z,19.14
2023-03-26T05:13:12.939Z,19.15
2023-03-26T05:15:40.784Z,19.15
2023-03-26T05:18:07.998Z,19.13
2023-03-26T05:20:38.702Z,19.14
2023-03-26T05:23:14.164Z,19.13
2023-03-26T05:25:44.166Z,19.13
2023-03-26T05:28:13.621Z,19.15
2023-03-26T05:30:43.217Z,19.17
2023-03-26T05:33:17.294Z,19.18
2023-03-26T05:35:48.914Z,19.19
2023-03-26T05:38:25.080Z,19.21
2023-03-26T05:40:52.594Z,19.22
2023-03-26T05:43:19.845Z,19.23
2023-03-26T05:45:50.977Z,19.25
2023-03-26T05:48:21.492Z,19.24
2023-03-26T05:50:59.795Z,19.24
2023-03-26T05:53:28.372Z,19.26
2023-03-26T05:56:01.419Z,19.27
2023-03-26T05:58:35.845Z,19.28
2023-03-26T06:01:07.780Z,19.29
2023-03-26T06:03:38.984Z,19.29
2023-03-26T06:06:14.716Z,19.29
2023-03-26T06:09:02.208Z,19.31
2023-03-26T06:11:34.012Z,19.32
2023-03-26T06:14:07.977Z,19.35
2023-03-26T06:16:41.259Z,19.38
2023-03-26T06:19:08.465Z,19.41
2023-03-26T06:21:36.353Z,19.44
2023-03-26T06:24:09.151Z,19.47
2023-03-26T06:26:36.376Z,19.49
2023-03-26T06:29:03.920Z,19.53
2023-03-26T06:31:34.053Z,19.56
2023-03-26T06:34:12.105Z,19.58
2023-03-26T06:36:47.359Z,19.60
2023-03-26T06:39:20.788Z,19.65
2023-03-26T06:41:55.810Z,19.67
2023-03-26T06:44:28.541Z,19.69
2023-03-26T06:46:58.578Z,19.72
2023-03-26T06:49:28.738Z,19.73
2023-03-26T06:52:00.690Z,19.75
2023-03-26T06:54:30.632Z,19.76
2023-03-26T06:57:03.300Z,19.76
2023-03-26T06:59:33.428Z,19.77
2023-03-26T07:02:03.693Z,19.76
2023-03-26T07:04:34.056Z,19.77
2023-03-26T07:07:07.433Z,19.77
2023-03-26T07:09:37.827Z,19.76
2023-03-26T07:12:05.609Z,19.78
2023-03-26T07:14:38.938Z,19.77
2023-03-26T07:17:09.064Z,19.77
2023-03-26T07:19:37.827Z,19.78
2023-03-26T07:22:17.032Z,19.77
2023-03-26T07:24:46.660Z,19.78
2023-03-26T07:27:29.103Z,19.80
2023-03-26T07:30:09.488Z,19.81
2023-03-26T07:32:59.889Z,19.81
2023-03-26T07:35:41.771Z,19.83
2023-03-26T07:38:24.070Z,19.84
2023-03-26T07:41:17.811Z,19.86
2023-03-26T07:44:15.919Z,19.88
2023-03-26T07:46:43.171Z,19.87
2023-03-26T07:49:23.038Z,19.88
2023-03-26T07:51:56.369Z,19.86
2023-03-26T07:54:35.402Z,19.86
2023-03-26T07:57:15.929Z,19.85
2023-03-26T07:59:58.677Z,19.83
2023-03-26T08:02:37.796Z,19.84
2023-03-26T08:05:25.604Z,19.84
2023-03-26T08:08:13.704Z,19.82
2023-03-26T08:11:06.887Z,19.83
2023-03-26T08:13:54.372Z,19.85
2023-03-26T08:16:40.708Z,19.85
2023-03-26T08:19:30.286Z,19.87
2023-03-26T08:22:13.846Z,19.89
2023-03-26T08:24:55.601Z,19.90
2023-03-26T08:27:28.732Z,19.89
2023-03-26T08:30:17.234Z,19.92
2023-03-26T08:32:55.117Z,19.93
2023-03-26T08:35:29.321Z,19.95
2023-03-26T08:38:00.086Z,19.95
2023-03-26T08:40:56.925Z,19.96
2023-03-26T08:43:48.662Z,19.94
2023-03-26T08:46:24.851Z,19.95
2023-03-26T08:49:20.597Z,19.94
2023-03-26T08:52:27.392Z,19.94
2023-03-26T08:55:13.264Z,19.92
2023-03-26T08:57:58.694Z,19.91
2023-03-26T09:00:41.074Z,19.91
2023-03-26T09:03:50.889Z,19.95
2023-03-26T09:06:51.928Z,19.96
2023-03-26T09:09:37.404Z,19.96
2023-03-26T09:12:43.855Z,19.98
2023-03-26T09:15:41.506Z,19.99
2023-03-26T09:18:46.001Z,19.99
2023-03-26T09:21:42.359Z,19.99
2023-03-26T09:24:33.746Z,19.99
2023-03-26T09:27:09.601Z,19.96
2023-03-26T09:30:02.670Z,19.97
2023-03-26T09:32:47.784Z,19.95
2023-03-26T09:35:17.753Z,19.95
2023-03-26T09:38:00.914Z,19.93
2023-03-26T09:41:13.386Z,19.91
2023-03-26T09:43:55.674Z,19.92
2023-03-26T09:47:01.302Z,19.96
2023-03-26T09:49:52.793Z,19.94
2023-03-26T09:52:46.768Z,19.98
2023-03-26T09:55:32.396Z,19.99
2023-03-26T09:58:17.911Z,20.00
2023-03-26T10:01:03.151Z,19.99
2023-03-26T10:03:54.562Z,19.97
2023-03-26T10:06:54.219Z,19.98
2023-03-26T10:09:42.923Z,20.03
2023-03-26T10:12:25.336Z,20.02
2023-03-26T10:15:05.761Z,20.02
2023-03-26T10:18:27.459Z,20.03
2023-03-26T10:21:28.384Z,20.02
2023-03-26T10:24:12.869Z,20.01
2023-03-26T10:27:09.309Z,19.99
2023-03-26T10:29:55.556Z,19.96
2023-03-26T10:32:44.241Z,19.99
2023-03-26T10:35:38.851Z,19.98
2023-03-26T10:38:25.325Z,20.02
2023-03-26T10:41:19.535Z,20.02
2023-03-26T10:44:15.631Z,20.02
2023-03-26T10:47:27.554Z,20.05
2023-03-26T10:50:07.203Z,20.07
2023-03-26T10:53:00.781Z,20.09
2023-03-26T10:55:31.284Z,20.10
2023-03-26T10:58:12.925Z,20.11
2023-03-26T11:00:51.228Z,20.13
2023-03-26T11:03:38.088Z,20.15
2023-03-26T11:06:27.469Z,20.13
2023-03-26T11:09:15.835Z,20.14
2023-03-26T11:12:25.650Z,20.19
2023-03-26T11:15:32.591Z,20.19
2023-03-26T11:18:19.606Z,20.19
2023-03-26T11:21:19.794Z,20.20
2023-03-26T11:24:18.487Z,20.22
2023-03-26T11:26:51.761Z,20.21
2023-03-26T11:29:34.490Z,20.20
2023-03-26T11:32:21.140Z,20.20
2023-03-26T11:35:10.287Z,20.20
2023-03-26T11:37:48.309Z,20.19
2023-03-26T11:40:35.539Z,20.17
2023-03-26T11:43:13.095Z,20.19
2023-03-26T11:45:52.193Z,20.16
2023-03-26T11:48:31.689Z,20.16
2023-03-26T11:51:30.819Z,20.19
2023-03-26T11:54:00.979Z,20.10
2023-03-26T11:57:06.022Z,20.19
2023-03-26T11:59:45.211Z,20.22
2023-03-26T12:02:31.938Z,20.22
2023-03-26T12:05:11.498Z,20.21
2023-03-26T12:08:05.358Z,20.20
2023-03-26T12:10:38.555Z,20.20
2023-03-26T12:13:30.670Z,20.21
2023-03-26T12:16:10.751Z,20.22
2023-03-26T12:18:40.146Z,20.15
2023-03-26T12:21:15.546Z,20.17
2023-03-26T12:23:57.281Z,20.18
2023-03-26T12:26:46.733Z,20.15
2023-03-26T12:29:16.859Z,20.17
2023-03-26T12:32:06.843Z,20.17
2023-03-26T12:34:43.382Z,20.18
2023-03-26T12:37:39.991Z,20.17
2023-03-26T12:40:31.397Z,20.21
2023-03-26T12:44:49.858Z,20.21
2023-03-26T12:47:45.972Z,20.20
2023-03-26T12:48:52.103Z,20.22
2023-03-26T12:51:40.548Z,20.22
2023-03-26T12:54:44.708Z,20.25
2023-03-26T12:57:22.303Z,20.24
2023-03-26T12:59:59.605Z,20.23
2023-03-26T13:02:51.025Z,20.26
2023-03-26T13:05:42.401Z,20.25
2023-03-26T13:08:27.784Z,20.27
2023-03-26T13:11:20.439Z,20.25
2023-03-26T13:14:26.183Z,20.23
2023-03-26T13:17:33.880Z,20.28
2023-03-26T13:20:09.555Z,20.30
2023-03-26T13:23:05.377Z,20.31
2023-03-26T13:26:01.432Z,20.33
2023-03-26T13:28:54.096Z,20.37
2023-03-26T13:31:40.227Z,20.38
2023-03-26T13:34:51.804Z,20.39
2023-03-26T13:37:19.210Z,20.40
2023-03-26T13:40:16.143Z,20.44
2023-03-26T13:43:01.696Z,20.46
2023-03-26T13:46:09.400Z,20.48
2023-03-26T13:48:55.212Z,20.47
2023-03-26T13:51:58.312Z,20.46
2023-03-26T13:55:16.389Z,20.47
2023-03-26T13:58:01.747Z,20.48
2023-03-26T14:00:48.982Z,20.48
2023-03-26T14:03:34.925Z,20.49
2023-03-26T14:06:13.171Z,20.47
2023-03-26T14:08:55.501Z,20.46
2023-03-26T14:11:42.276Z,20.47
2023-03-26T14:14:51.755Z,20.47
2023-03-26T14:17:43.311Z,20.49
2023-03-26T14:20:28.802Z,20.52
2023-03-26T14:23:14.284Z,20.55
2023-03-26T14:26:10.670Z,20.55
2023-03-26T14:29:08.624Z,20.58
2023-03-26T14:31:52.453Z,20.61
2023-03-26T14:34:44.129Z,20.61
2023-03-26T14:37:28.945Z,20.61
2023-03-26T14:40:11.251Z,20.62
2023-03-26T14:43:00.989Z,20.63
2023-03-26T14:45:56.299Z,20.62
2023-03-26T14:48:36.605Z,20.63
2023-03-26T14:51:24.842Z,20.63
2023-03-26T14:54:04.024Z,20.63
2023-03-26T14:57:07.789Z,20.64
2023-03-26T14:59:53.253Z,20.67
2023-03-26T15:02:56.355Z,20.67
2023-03-26T15:05:47.601Z,20.70
2023-03-26T15:08:20.791Z,20.69
2023-03-26T15:11:25.000Z,20.70
2023-03-26T15:14:22.263Z,20.72
2023-03-26T15:17:26.665Z,20.74
2023-03-26T15:20:21.067Z,20.76
2023-03-26T15:23:34.702Z,20.78
2023-03-26T15:26:50.510Z,20.80
2023-03-26T15:29:41.591Z,20.83
2023-03-26T15:32:56.658Z,20.80
2023-03-26T15:36:00.497Z,20.79
2023-03-26T15:38:33.824Z,20.78
2023-03-26T15:41:18.779Z,20.79
2023-03-26T15:44:24.015Z,20.77
2023-03-26T15:46:59.758Z,20.76
2023-03-26T15:49:45.243Z,20.76
2023-03-26T15:52:54.974Z,20.76
2023-03-26T15:55:30.371Z,20.74
2023-03-26T15:58:15.625Z,20.76
2023-03-26T16:00:59.785Z,20.76
2023-03-26T16:03:40.202Z,20.78
2023-03-26T16:06:50.204Z,20.79
2023-03-26T16:09:23.890Z,20.83
2023-03-26T16:12:19.114Z,20.83
2023-03-26T16:15:10.507Z,20.84
2023-03-26T16:18:10.810Z,20.85
2023-03-26T16:21:31.812Z,20.88
2023-03-26T16:24:03.764Z,20.87
2023-03-26T16:26:51.924Z,20.86
2023-03-26T16:29:30.840Z,20.85
2023-03-26T16:32:12.879Z,20.85
2023-03-26T16:34:59.533Z,20.83
2023-03-26T16:37:39.585Z,20.84
2023-03-26T16:40:32.360Z,20.85
2023-03-26T16:43:17.834Z,20.86
2023-03-26T16:46:11.970Z,20.86
2023-03-26T16:48:51.226Z,20.84
2023-03-26T16:51:58.903Z,20.85
2023-03-26T16:54:45.978Z,20.81
2023-03-26T16:57:23.186Z,20.77
2023-03-26T17:00:08.294Z,20.74
2023-03-26T17:03:02.957Z,20.74
2023-03-26T17:06:18.167Z,20.74
2023-03-26T17:09:17.639Z,20.74
2023-03-26T17:12:14.715Z,20.75
2023-03-26T17:15:12.284Z,20.73
2023-03-26T17:18:05.827Z,20.74
2023-03-26T17:21:26.009Z,20.73
2023-03-26T17:24:18.923Z,20.72
2023-03-26T17:27:05.381Z,20.73
2023-03-26T17:30:01.509Z,20.72
2023-03-26T17:32:58.921Z,20.71
2023-03-26T17:35:51.492Z,20.71
2023-03-26T17:38:27.633Z,20.68
2023-03-26T17:40:57.421Z,20.66
2023-03-26T17:43:45.663Z,20.67
2023-03-26T17:46:39.111Z,20.68
2023-03-26T17:49:19.400Z,20.67
2023-03-26T17:52:08.882Z,20.66
2023-03-26T17:54:48.992Z,20.64
2023-03-26T17:57:44.411Z,20.61
2023-03-26T18:00:42.718Z,20.59
2023-03-26T18:03:42.411Z,20.58
2023-03-26T18:06:38.260Z,20.57
2023-03-26T18:09:33.067Z,20.57
2023-03-26T18:12:34.553Z,20.59
2023-03-26T18:15:14.001Z,20.58
2023-03-26T18:17:47.313Z,20.59
2023-03-26T18:20:26.737Z,20.59
2023-03-26T18:22:54.368Z,20.59
2023-03-26T18:25:34.773Z,20.58
2023-03-26T18:28:06.459Z,20.57
2023-03-26T18:30:46.740Z,20.59
2023-03-26T18:33:17.886Z,20.55
2023-03-26T18:35:53.813Z,20.58
2023-03-26T18:38:36.093Z,20.59
2023-03-26T18:41:22.486Z,20.57
2023-03-26T18:44:01.302Z,20.56
2023-03-26T18:46:39.555Z,20.54
2023-03-26T18:49:11.032Z,20.52
2023-03-26T18:51:54.044Z,20.51
2023-03-26T18:54:31.489Z,20.52
2023-03-26T18:57:15.817Z,20.49
2023-03-26T18:59:53.400Z,20.45
2023-03-26T19:02:28.437Z,20.44
2023-03-26T19:04:56.431Z,20.44
2023-03-26T19:07:29.247Z,20.44
2023-03-26T19:09:57.787Z,20.42
2023-03-26T19:12:34.897Z,20.43
2023-03-26T19:15:17.236Z,20.41
2023-03-26T19:17:52.961Z,20.40
2023-03-26T19:20:27.345Z,20.40
2023-03-26T19:22:56.174Z,20.39
2023-03-26T19:25:29.263Z,20.37
2023-03-26T19:27:56.061Z,20.35
2023-03-26T19:30:35.870Z,20.38
2023-03-26T19:33:25.262Z,20.34
2023-03-26T19:36:04.422Z,20.33
2023-03-26T19:38:55.153Z,20.32
2023-03-26T19:41:38.317Z,20.31
2023-03-26T19:44:27.659Z,20.31
2023-03-26T19:47:11.462Z,20.30
2023-03-26T19:50:03.091Z,20.29
2023-03-26T19:52:44.210Z,20.29
2023-03-26T19:55:26.946Z,20.28
2023-03-26T19:57:59.092Z,20.27
2023-03-26T20:00:32.963Z,20.28
2023-03-26T20:03:03.638Z,20.27
2023-03-26T20:05:39.125Z,20.27
2023-03-26T20:08:16.602Z,20.28
2023-03-26T20:10:43.940Z,20.26
2023-03-26T20:13:17.960Z,20.27
2023-03-26T20:16:05.771Z,20.26
2023-03-26T20:18:45.131Z,20.26
2023-03-26T20:21:16.868Z,20.25
2023-03-26T20:23:51.690Z,20.24
2023-03-26T20:26:23.096Z,20.22
2023-03-26T20:28:58.327Z,20.21
2023-03-26T20:31:30.575Z,20.21
2023-03-26T20:33:57.604Z,20.21
2023-03-26T20:36:34.194Z,20.19
2023-03-26T20:39:10.825Z,20.18
2023-03-26T20:41:44.565Z,20.18
2023-03-26T20:44:17.552Z,20.17
2023-03-26T20:46:48.548Z,20.17
2023-03-26T20:49:22.386Z,20.17
2023-03-26T20:51:56.153Z,20.14
2023-03-26T20:54:39.255Z,20.11
2023-03-26T20:57:15.280Z,20.13
2023-03-26T20:59:48.668Z,20.11
2023-03-26T21:02:21.711Z,20.10
2023-03-26T21:04:50.040Z,20.09
2023-03-26T21:07:26.295Z,20.11
2023-03-26T21:09:56.362Z,20.07
2023-03-26T21:12:33.508Z,20.06
2023-03-26T21:15:22.319Z,20.05
2023-03-26T21:17:51.695Z,20.05
2023-03-26T21:20:30.202Z,20.05
2023-03-26T21:23:13.751Z,20.03
2023-03-26T21:26:24.834Z,20.03
2023-03-26T21:28:53.760Z,20.01
2023-03-26T21:31:23.037Z,20.02
2023-03-26T21:33:54.541Z,19.99
2023-03-26T21:36:27.764Z,19.98
2023-03-26T21:39:01.146Z,19.99
2023-03-26T21:42:04.789Z,19.97
2023-03-26T21:44:37.165Z,19.96
2023-03-26T21:47:10.155Z,19.97
2023-03-26T21:49:37.921Z,19.93
2023-03-26T21:52:06.075Z,19.93
2023-03-26T21:54:36.683Z,19.94
2023-03-26T21:57:21.742Z,19.91
2023-03-26T22:00:06.518Z,19.91
2023-03-26T22:02:57.324Z,19.90
2023-03-26T22:06:02.111Z,19.90
2023-03-26T22:08:41.842Z,19.89
2023-03-26T22:11:15.683Z,19.88
2023-03-26T22:13:42.694Z,19.87
2023-03-26T22:16:10.027Z,19.87
2023-03-26T22:18:39.957Z,19.87
2023-03-26T22:21:12.921Z,19.84
2023-03-26T22:23:45.137Z,19.82
2023-03-26T22:26:18.747Z,19.85
2023-03-26T22:28:49.507Z,19.82
2023-03-26T22:31:20.619Z,19.82
2023-03-26T22:33:48.313Z,19.82
2023-03-26T22:36:22.824Z,19.81
2023-03-26T22:38:53.131Z,19.80
2023-03-26T22:41:22.056Z,19.79
2023-03-26T22:43:58.167Z,19.78
2023-03-26T22:46:30.482Z,19.77
2023-03-26T22:49:03.671Z,19.76
2023-03-26T22:51:33.581Z,19.76
2023-03-26T22:54:09.797Z,19.76
2023-03-26T22:56:45.170Z,19.75
2023-03-26T22:59:20.579Z,19.75
2023-03-26T23:01:54.728Z,19.76
2023-03-26T23:04:31.090Z,19.74
2023-03-26T23:07:04.105Z,19.73
2023-03-26T23:09:40.675Z,19.74
2023-03-26T23:12:10.565Z,19.72
2023-03-26T23:14:47.255Z,19.72
2023-03-26T23:17:17.596Z,19.71
2023-03-26T23:19:46.047Z,19.70
2023-03-26T23:22:19.086Z,19.72
2023-03-26T23:24:54.543Z,19.70
2023-03-26T23:27:24.527Z,19.73
2023-03-26T23:29:57.895Z,19.70
2023-03-26T23:32:29.512Z,19.68
2023-03-26T23:34:59.413Z,19.68
2023-03-26T23:37:36.702Z,19.66
2023-03-26T23:40:07.350Z,19.66
2023-03-26T23:42:39.449Z,19.66
2023-03-26T23:45:07.144Z,19.65
2023-03-26T23:47:34.325Z,19.67
2023-03-26T23:50:02.602Z,19.65
2023-03-26T23:52:39.134Z,19.63
2023-03-26T23:55:09.236Z,19.62
2023-03-26T23:57:45.351Z,19.62
